sensor_id;sensor_type;location;lat;lon;timestamp;P1;durP1;ratioP1;P2;durP2;ratioP2
52025;SDS011;38041;40.058;18.328;2022-08-01T00:02:30;5.53;;;1.00;;
52025;SDS011;38041;40.058;18.328;2022-08-01T00:04:58;8.02;;;0.60;;
52025;SDS011;38041;40.058;18.328;2022-08-01T00:07:26;7.65;;;0.98;;
52025;SDS011;38041;40.058;18.328;2022-08-01T00:09:54;9.80;;;1.17;;
52025;SDS011;38041;40.058;18.328;2022-08-01T00:12:22;10.18;;;0.90;;
52025;SDS011;38041;40.058;18.328;2022-08-01T00:14:49;7.80;;;0.60;;
52025;SDS011;38041;40.058;18.328;2022-08-01T00:17:17;8.15;;;1.00;;
52025;SDS011;38041;40.058;18.328;2022-08-01T00:19:45;8.13;;;0.85;;
52025;SDS011;38041;40.058;18.328;2022-08-01T00:22:12;7.70;;;1.02;;
52025;SDS011;38041;40.058;18.328;2022-08-01T00:24:40;10.30;;;0.93;;
52025;SDS011;38041;40.058;18.328;2022-08-01T00:27:08;8.05;;;0.93;;
52025;SDS011;38041;40.058;18.328;2022-08-01T00:29:36;6.07;;;0.98;;
52025;SDS011;38041;40.058;18.328;2022-08-01T00:32:03;5.80;;;0.70;;
52025;SDS011;38041;40.058;18.328;2022-08-01T00:34:32;3.17;;;0.70;;
52025;SDS011;38041;40.058;18.328;2022-08-01T00:37:13;9.15;;;1.05;;
52025;SDS011;38041;40.058;18.328;2022-08-01T00:39:41;9.30;;;0.85;;
52025;SDS011;38041;40.058;18.328;2022-08-01T00:42:09;5.95;;;0.63;;
52025;SDS011;38041;40.058;18.328;2022-08-01T00:44:37;5.65;;;0.73;;
52025;SDS011;38041;40.058;18.328;2022-08-01T00:47:05;8.40;;;0.65;;
52025;SDS011;38041;40.058;18.328;2022-08-01T00:49:33;6.82;;;0.65;;
52025;SDS011;38041;40.058;18.328;2022-08-01T00:52:02;5.05;;;0.70;;
52025;SDS011;38041;40.058;18.328;2022-08-01T00:54:31;9.63;;;1.65;;
52025;SDS011;38041;40.058;18.328;2022-08-01T00:56:59;1.85;;;0.40;;
52025;SDS011;38041;40.058;18.328;2022-08-01T00:59:27;5.63;;;0.90;;
52025;SDS011;38041;40.058;18.328;2022-08-01T01:01:55;2.55;;;0.47;;
52025;SDS011;38041;40.058;18.328;2022-08-01T01:04:22;6.13;;;0.82;;
52025;SDS011;38041;40.058;18.328;2022-08-01T01:17:02;7.13;;;1.15;;
52025;SDS011;38041;40.058;18.328;2022-08-01T01:19:30;5.78;;;1.00;;
52025;SDS011;38041;40.058;18.328;2022-08-01T01:22:07;7.15;;;0.60;;
52025;SDS011;38041;40.058;18.328;2022-08-01T01:29:40;7.05;;;0.88;;
52025;SDS011;38041;40.058;18.328;2022-08-01T01:34:54;2.55;;;0.50;;
52025;SDS011;38041;40.058;18.328;2022-08-01T01:37:24;3.72;;;0.40;;
52025;SDS011;38041;40.058;18.328;2022-08-01T01:39:53;5.07;;;0.70;;
52025;SDS011;38041;40.058;18.328;2022-08-01T01:42:21;4.18;;;0.70;;
52025;SDS011;38041;40.058;18.328;2022-08-01T01:44:50;6.57;;;0.40;;
52025;SDS011;38041;40.058;18.328;2022-08-01T01:47:18;7.68;;;0.57;;
52025;SDS011;38041;40.058;18.328;2022-08-01T01:49:47;5.63;;;0.47;;
52025;SDS011;38041;40.058;18.328;2022-08-01T01:52:16;5.13;;;1.02;;
52025;SDS011;38041;40.058;18.328;2022-08-01T01:54:46;5.28;;;0.93;;
52025;SDS011;38041;40.058;18.328;2022-08-01T01:57:15;2.63;;;0.40;;
52025;SDS011;38041;40.058;18.328;2022-08-01T01:59:48;7.13;;;0.73;;
52025;SDS011;38041;40.058;18.328;2022-08-01T02:02:17;6.85;;;0.60;;
52025;SDS011;38041;40.058;18.328;2022-08-01T02:04:45;10.82;;;0.82;;
52025;SDS011;38041;40.058;18.328;2022-08-01T02:07:16;3.97;;;0.75;;
52025;SDS011;38041;40.058;18.328;2022-08-01T02:09:44;4.60;;;0.40;;
52025;SDS011;38041;40.058;18.328;2022-08-01T02:12:13;6.72;;;0.40;;
52025;SDS011;38041;40.058;18.328;2022-08-01T02:14:41;2.58;;;1.02;;
52025;SDS011;38041;40.058;18.328;2022-08-01T02:17:12;7.63;;;0.80;;
52025;SDS011;38041;40.058;18.328;2022-08-01T02:19:42;4.07;;;0.95;;
52025;SDS011;38041;40.058;18.328;2022-08-01T02:22:12;4.47;;;0.52;;
52025;SDS011;38041;40.058;18.328;2022-08-01T02:24:47;3.22;;;0.50;;
52025;SDS011;38041;40.058;18.328;2022-08-01T02:27:17;4.93;;;0.93;;
52025;SDS011;38041;40.058;18.328;2022-08-01T02:35:05;4.15;;;0.75;;
52025;SDS011;38041;40.058;18.328;2022-08-01T02:37:34;7.88;;;0.93;;
52025;SDS011;38041;40.058;18.328;2022-08-01T02:40:04;2.30;;;0.47;;
52025;SDS011;38041;40.058;18.328;2022-08-01T02:42:33;6.47;;;0.50;;
52025;SDS011;38041;40.058;18.328;2022-08-01T02:45:02;6.60;;;0.70;;
52025;SDS011;38041;40.058;18.328;2022-08-01T02:47:31;3.83;;;0.40;;
52025;SDS011;38041;40.058;18.328;2022-08-01T02:49:59;5.65;;;0.43;;
52025;SDS011;38041;40.058;18.328;2022-08-01T02:52:42;3.95;;;1.00;;
52025;SDS011;38041;40.058;18.328;2022-08-01T02:55:13;4.28;;;0.50;;
52025;SDS011;38041;40.058;18.328;2022-08-01T02:57:42;6.97;;;0.63;;
52025;SDS011;38041;40.058;18.328;2022-08-01T03:00:10;5.22;;;1.17;;
52025;SDS011;38041;40.058;18.328;2022-08-01T03:02:38;6.72;;;0.75;;
52025;SDS011;38041;40.058;18.328;2022-08-01T03:05:06;8.82;;;1.05;;
52025;SDS011;38041;40.058;18.328;2022-08-01T03:07:35;5.03;;;0.52;;
52025;SDS011;38041;40.058;18.328;2022-08-01T03:10:03;5.20;;;0.70;;
52025;SDS011;38041;40.058;18.328;2022-08-01T03:12:33;7.68;;;0.73;;
52025;SDS011;38041;40.058;18.328;2022-08-01T03:15:01;3.55;;;0.70;;
52025;SDS011;38041;40.058;18.328;2022-08-01T03:17:30;6.78;;;0.63;;
52025;SDS011;38041;40.058;18.328;2022-08-01T03:19:58;5.55;;;1.20;;
52025;SDS011;38041;40.058;18.328;2022-08-01T03:22:26;11.15;;;0.95;;
52025;SDS011;38041;40.058;18.328;2022-08-01T03:24:54;5.10;;;0.75;;
52025;SDS011;38041;40.058;18.328;2022-08-01T03:27:23;6.28;;;0.63;;
52025;SDS011;38041;40.058;18.328;2022-08-01T03:29:51;10.57;;;1.00;;
52025;SDS011;38041;40.058;18.328;2022-08-01T03:32:22;4.60;;;0.70;;
52025;SDS011;38041;40.058;18.328;2022-08-01T03:34:50;9.35;;;1.70;;
52025;SDS011;38041;40.058;18.328;2022-08-01T03:40:35;6.50;;;0.52;;
52025;SDS011;38041;40.058;18.328;2022-08-01T03:42:42;7.32;;;1.25;;
52025;SDS011;38041;40.058;18.328;2022-08-01T03:45:14;8.13;;;1.92;;
52025;SDS011;38041;40.058;18.328;2022-08-01T03:47:43;5.38;;;0.90;;
52025;SDS011;38041;40.058;18.328;2022-08-01T03:50:11;9.48;;;0.75;;
52025;SDS011;38041;40.058;18.328;2022-08-01T03:52:41;9.15;;;0.60;;
52025;SDS011;38041;40.058;18.328;2022-08-01T03:55:11;5.28;;;0.73;;
52025;SDS011;38041;40.058;18.328;2022-08-01T03:57:39;4.95;;;0.50;;
52025;SDS011;38041;40.058;18.328;2022-08-01T04:00:07;3.88;;;0.43;;
52025;SDS011;38041;40.058;18.328;2022-08-01T04:02:38;4.30;;;0.73;;
52025;SDS011;38041;40.058;18.328;2022-08-01T04:05:06;6.13;;;1.35;;
52025;SDS011;38041;40.058;18.328;2022-08-01T04:07:34;5.47;;;1.63;;
52025;SDS011;38041;40.058;18.328;2022-08-01T04:10:03;3.78;;;0.50;;
52025;SDS011;38041;40.058;18.328;2022-08-01T04:12:31;6.88;;;0.77;;
52025;SDS011;38041;40.058;18.328;2022-08-01T04:14:59;9.20;;;0.77;;
52025;SDS011;38041;40.058;18.328;2022-08-01T04:17:27;7.32;;;1.60;;
52025;SDS011;38041;40.058;18.328;2022-08-01T04:19:54;10.15;;;1.17;;
52025;SDS011;38041;40.058;18.328;2022-08-01T04:22:22;25.60;;;1.42;;
52025;SDS011;38041;40.058;18.328;2022-08-01T04:24:50;12.63;;;1.23;;
52025;SDS011;38041;40.058;18.328;2022-08-01T04:27:29;5.72;;;0.60;;
52025;SDS011;38041;40.058;18.328;2022-08-01T04:29:58;17.17;;;1.83;;
52025;SDS011;38041;40.058;18.328;2022-08-01T04:32:27;5.70;;;1.60;;
52025;SDS011;38041;40.058;18.328;2022-08-01T04:34:57;7.40;;;1.05;;
52025;SDS011;38041;40.058;18.328;2022-08-01T04:37:26;6.05;;;1.70;;
52025;SDS011;38041;40.058;18.328;2022-08-01T04:39:55;8.93;;;0.77;;
52025;SDS011;38041;40.058;18.328;2022-08-01T04:42:24;5.57;;;2.08;;
52025;SDS011;38041;40.058;18.328;2022-08-01T04:44:51;62.03;;;4.30;;
52025;SDS011;38041;40.058;18.328;2022-08-01T04:47:19;6.35;;;0.90;;
52025;SDS011;38041;40.058;18.328;2022-08-01T04:49:47;13.68;;;1.15;;
52025;SDS011;38041;40.058;18.328;2022-08-01T04:52:15;6.43;;;1.05;;
52025;SDS011;38041;40.058;18.328;2022-08-01T04:54:46;9.13;;;1.30;;
52025;SDS011;38041;40.058;18.328;2022-08-01T04:57:13;3.45;;;0.80;;
52025;SDS011;38041;40.058;18.328;2022-08-01T04:59:43;7.93;;;0.70;;
52025;SDS011;38041;40.058;18.328;2022-08-01T05:02:12;10.50;;;1.23;;
52025;SDS011;38041;40.058;18.328;2022-08-01T05:04:40;8.55;;;1.13;;
52025;SDS011;38041;40.058;18.328;2022-08-01T05:07:08;4.13;;;0.85;;
52025;SDS011;38041;40.058;18.328;2022-08-01T05:09:36;11.30;;;1.00;;
52025;SDS011;38041;40.058;18.328;2022-08-01T05:12:04;11.82;;;1.00;;
52025;SDS011;38041;40.058;18.328;2022-08-01T05:14:32;52.53;;;3.85;;
52025;SDS011;38041;40.058;18.328;2022-08-01T05:17:01;5.78;;;0.77;;
52025;SDS011;38041;40.058;18.328;2022-08-01T05:19:30;11.88;;;1.50;;
52025;SDS011;38041;40.058;18.328;2022-08-01T05:21:58;16.35;;;2.58;;
52025;SDS011;38041;40.058;18.328;2022-08-01T05:24:27;42.38;;;4.75;;
52025;SDS011;38041;40.058;18.328;2022-08-01T05:26:55;12.57;;;1.25;;
52025;SDS011;38041;40.058;18.328;2022-08-01T05:29:23;10.73;;;2.65;;
52025;SDS011;38041;40.058;18.328;2022-08-01T05:31:51;40.10;;;4.03;;
52025;SDS011;38041;40.058;18.328;2022-08-01T05:34:19;31.50;;;2.60;;
52025;SDS011;38041;40.058;18.328;2022-08-01T05:36:47;43.78;;;3.67;;
52025;SDS011;38041;40.058;18.328;2022-08-01T05:39:16;16.85;;;2.17;;
52025;SDS011;38041;40.058;18.328;2022-08-01T05:41:44;17.27;;;1.83;;
52025;SDS011;38041;40.058;18.328;2022-08-01T05:44:12;10.30;;;1.75;;
52025;SDS011;38041;40.058;18.328;2022-08-01T05:46:39;11.07;;;2.45;;
52025;SDS011;38041;40.058;18.328;2022-08-01T05:49:07;12.35;;;2.00;;
52025;SDS011;38041;40.058;18.328;2022-08-01T05:51:35;8.52;;;1.70;;
52025;SDS011;38041;40.058;18.328;2022-08-01T05:54:02;11.15;;;2.90;;
52025;SDS011;38041;40.058;18.328;2022-08-01T05:56:30;5.63;;;1.88;;
52025;SDS011;38041;40.058;18.328;2022-08-01T05:58:58;5.30;;;2.15;;
52025;SDS011;38041;40.058;18.328;2022-08-01T06:01:26;3.95;;;1.90;;
52025;SDS011;38041;40.058;18.328;2022-08-01T06:03:53;5.97;;;2.90;;
52025;SDS011;38041;40.058;18.328;2022-08-01T06:06:21;10.15;;;3.67;;
52025;SDS011;38041;40.058;18.328;2022-08-01T06:08:49;13.90;;;5.03;;
52025;SDS011;38041;40.058;18.328;2022-08-01T06:11:18;16.95;;;5.65;;
52025;SDS011;38041;40.058;18.328;2022-08-01T06:13:46;8.68;;;5.50;;
52025;SDS011;38041;40.058;18.328;2022-08-01T06:16:14;10.60;;;4.10;;
52025;SDS011;38041;40.058;18.328;2022-08-01T06:18:42;14.20;;;3.50;;
52025;SDS011;38041;40.058;18.328;2022-08-01T06:21:10;22.55;;;15.90;;
52025;SDS011;38041;40.058;18.328;2022-08-01T06:23:37;41.22;;;20.20;;
52025;SDS011;38041;40.058;18.328;2022-08-01T06:26:05;63.35;;;44.70;;
52025;SDS011;38041;40.058;18.328;2022-08-01T06:28:33;26.60;;;4.82;;
52025;SDS011;38041;40.058;18.328;2022-08-01T06:31:24;7.50;;;1.55;;
52025;SDS011;38041;40.058;18.328;2022-08-01T06:33:53;6.03;;;1.38;;
52025;SDS011;38041;40.058;18.328;2022-08-01T06:36:23;3.60;;;1.23;;
52025;SDS011;38041;40.058;18.328;2022-08-01T06:38:52;4.18;;;2.10;;
52025;SDS011;38041;40.058;18.328;2022-08-01T06:41:20;3.28;;;1.25;;
52025;SDS011;38041;40.058;18.328;2022-08-01T06:43:47;3.88;;;2.15;;
52025;SDS011;38041;40.058;18.328;2022-08-01T06:46:15;2.80;;;1.38;;
52025;SDS011;38041;40.058;18.328;2022-08-01T06:48:43;6.25;;;2.08;;
52025;SDS011;38041;40.058;18.328;2022-08-01T06:51:10;3.53;;;1.90;;
52025;SDS011;38041;40.058;18.328;2022-08-01T06:53:42;3.22;;;2.10;;
52025;SDS011;38041;40.058;18.328;2022-08-01T06:56:09;5.78;;;2.58;;
52025;SDS011;38041;40.058;18.328;2022-08-01T06:58:37;5.30;;;1.77;;
52025;SDS011;38041;40.058;18.328;2022-08-01T07:01:05;5.38;;;2.13;;
52025;SDS011;38041;40.058;18.328;2022-08-01T07:03:34;6.00;;;2.63;;
52025;SDS011;38041;40.058;18.328;2022-08-01T07:06:02;5.07;;;2.67;;
52025;SDS011;38041;40.058;18.328;2022-08-01T07:08:30;6.70;;;2.20;;
52025;SDS011;38041;40.058;18.328;2022-08-01T07:10:57;7.40;;;4.13;;
52025;SDS011;38041;40.058;18.328;2022-08-01T07:13:26;9.15;;;3.03;;
52025;SDS011;38041;40.058;18.328;2022-08-01T07:15:54;4.28;;;3.88;;
52025;SDS011;38041;40.058;18.328;2022-08-01T07:18:22;13.85;;;3.47;;
52025;SDS011;38041;40.058;18.328;2022-08-01T07:20:50;9.35;;;3.63;;
52025;SDS011;38041;40.058;18.328;2022-08-01T07:23:18;5.68;;;4.00;;
52025;SDS011;38041;40.058;18.328;2022-08-01T07:25:45;7.22;;;3.78;;
52025;SDS011;38041;40.058;18.328;2022-08-01T07:28:15;4.22;;;3.22;;
52025;SDS011;38041;40.058;18.328;2022-08-01T07:30:42;9.27;;;4.95;;
52025;SDS011;38041;40.058;18.328;2022-08-01T07:33:11;4.35;;;3.47;;
52025;SDS011;38041;40.058;18.328;2022-08-01T07:35:44;10.07;;;4.78;;
52025;SDS011;38041;40.058;18.328;2022-08-01T07:38:12;6.23;;;3.50;;
52025;SDS011;38041;40.058;18.328;2022-08-01T07:40:41;8.93;;;3.42;;
52025;SDS011;38041;40.058;18.328;2022-08-01T07:43:09;8.95;;;2.70;;
52025;SDS011;38041;40.058;18.328;2022-08-01T07:45:37;6.18;;;2.33;;
52025;SDS011;38041;40.058;18.328;2022-08-01T07:48:05;7.75;;;3.47;;
52025;SDS011;38041;40.058;18.328;2022-08-01T07:50:33;6.75;;;3.15;;
52025;SDS011;38041;40.058;18.328;2022-08-01T07:53:01;6.45;;;2.90;;
52025;SDS011;38041;40.058;18.328;2022-08-01T07:55:30;5.40;;;2.10;;
52025;SDS011;38041;40.058;18.328;2022-08-01T07:57:57;5.20;;;2.15;;
52025;SDS011;38041;40.058;18.328;2022-08-01T08:00:25;5.15;;;1.77;;
52025;SDS011;38041;40.058;18.328;2022-08-01T08:02:54;4.20;;;1.23;;
52025;SDS011;38041;40.058;18.328;2022-08-01T08:05:25;4.97;;;1.73;;
52025;SDS011;38041;40.058;18.328;2022-08-01T08:07:53;5.63;;;1.58;;
52025;SDS011;38041;40.058;18.328;2022-08-01T08:10:22;7.45;;;2.00;;
52025;SDS011;38041;40.058;18.328;2022-08-01T08:12:49;7.25;;;1.30;;
52025;SDS011;38041;40.058;18.328;2022-08-01T08:15:17;8.55;;;5.15;;
52025;SDS011;38041;40.058;18.328;2022-08-01T08:17:45;6.57;;;3.25;;
52025;SDS011;38041;40.058;18.328;2022-08-01T08:20:12;8.80;;;3.05;;
52025;SDS011;38041;40.058;18.328;2022-08-01T08:22:40;5.03;;;2.83;;
52025;SDS011;38041;40.058;18.328;2022-08-01T08:25:08;5.10;;;3.40;;
52025;SDS011;38041;40.058;18.328;2022-08-01T08:27:36;5.10;;;1.67;;
52025;SDS011;38041;40.058;18.328;2022-08-01T08:30:04;4.50;;;2.28;;
52025;SDS011;38041;40.058;18.328;2022-08-01T08:32:34;7.28;;;3.00;;
52025;SDS011;38041;40.058;18.328;2022-08-01T08:35:02;7.50;;;4.05;;
52025;SDS011;38041;40.058;18.328;2022-08-01T08:37:31;18.33;;;10.43;;
52025;SDS011;38041;40.058;18.328;2022-08-01T08:39:59;13.65;;;9.30;;
52025;SDS011;38041;40.058;18.328;2022-08-01T08:42:27;15.32;;;10.45;;
52025;SDS011;38041;40.058;18.328;2022-08-01T08:45:02;23.90;;;14.52;;
52025;SDS011;38041;40.058;18.328;2022-08-01T08:47:30;18.08;;;10.43;;
52025;SDS011;38041;40.058;18.328;2022-08-01T08:49:59;29.75;;;12.40;;
52025;SDS011;38041;40.058;18.328;2022-08-01T08:52:29;28.33;;;20.42;;
52025;SDS011;38041;40.058;18.328;2022-08-01T08:54:58;26.98;;;18.02;;
52025;SDS011;38041;40.058;18.328;2022-08-01T08:57:26;28.85;;;19.02;;
52025;SDS011;38041;40.058;18.328;2022-08-01T08:59:53;39.85;;;12.45;;
52025;SDS011;38041;40.058;18.328;2022-08-01T09:02:22;23.90;;;12.60;;
52025;SDS011;38041;40.058;18.328;2022-08-01T09:04:50;24.73;;;19.75;;
52025;SDS011;38041;40.058;18.328;2022-08-01T09:07:18;36.13;;;20.67;;
52025;SDS011;38041;40.058;18.328;2022-08-01T09:09:45;32.03;;;19.63;;
52025;SDS011;38041;40.058;18.328;2022-08-01T09:12:16;26.38;;;19.95;;
52025;SDS011;38041;40.058;18.328;2022-08-01T09:14:45;38.08;;;15.45;;
52025;SDS011;38041;40.058;18.328;2022-08-01T09:17:13;11.48;;;8.13;;
52025;SDS011;38041;40.058;18.328;2022-08-01T09:19:42;20.13;;;12.60;;
52025;SDS011;38041;40.058;18.328;2022-08-01T09:22:14;14.82;;;10.73;;
52025;SDS011;38041;40.058;18.328;2022-08-01T09:27:31;24.65;;;17.10;;
52025;SDS011;38041;40.058;18.328;2022-08-01T09:30:09;15.77;;;10.35;;
52025;SDS011;38041;40.058;18.328;2022-08-01T09:32:59;14.18;;;10.68;;
52025;SDS011;38041;40.058;18.328;2022-08-01T09:35:28;14.55;;;10.80;;
52025;SDS011;38041;40.058;18.328;2022-08-01T09:38:11;14.32;;;8.05;;
52025;SDS011;38041;40.058;18.328;2022-08-01T09:40:47;27.80;;;20.08;;
52025;SDS011;38041;40.058;18.328;2022-08-01T09:43:16;18.40;;;13.43;;
52025;SDS011;38041;40.058;18.328;2022-08-01T09:45:44;28.92;;;19.50;;
52025;SDS011;38041;40.058;18.328;2022-08-01T09:48:12;23.02;;;15.75;;
52025;SDS011;38041;40.058;18.328;2022-08-01T09:50:44;20.77;;;13.15;;
52025;SDS011;38041;40.058;18.328;2022-08-01T09:53:12;26.42;;;9.10;;
52025;SDS011;38041;40.058;18.328;2022-08-01T09:55:40;22.05;;;15.90;;
52025;SDS011;38041;40.058;18.328;2022-08-01T09:58:08;27.25;;;20.20;;
52025;SDS011;38041;40.058;18.328;2022-08-01T10:00:38;17.13;;;9.50;;
52025;SDS011;38041;40.058;18.328;2022-08-01T10:03:26;11.77;;;5.97;;
52025;SDS011;38041;40.058;18.328;2022-08-01T10:05:56;48.58;;;7.68;;
52025;SDS011;38041;40.058;18.328;2022-08-01T10:08:24;29.17;;;23.20;;
52025;SDS011;38041;40.058;18.328;2022-08-01T10:11:06;15.00;;;10.73;;
52025;SDS011;38041;40.058;18.328;2022-08-01T10:13:34;9.55;;;5.57;;
52025;SDS011;38041;40.058;18.328;2022-08-01T10:16:02;37.35;;;9.82;;
52025;SDS011;38041;40.058;18.328;2022-08-01T10:18:31;9.07;;;4.97;;
52025;SDS011;38041;40.058;18.328;2022-08-01T10:21:00;17.02;;;14.82;;
52025;SDS011;38041;40.058;18.328;2022-08-01T10:23:30;20.02;;;8.30;;
52025;SDS011;38041;40.058;18.328;2022-08-01T10:25:58;25.27;;;22.48;;
52025;SDS011;38041;40.058;18.328;2022-08-01T10:28:40;18.52;;;13.88;;
52025;SDS011;38041;40.058;18.328;2022-08-01T10:31:11;14.13;;;7.25;;
52025;SDS011;38041;40.058;18.328;2022-08-01T10:33:38;26.58;;;13.18;;
52025;SDS011;38041;40.058;18.328;2022-08-01T10:36:08;24.90;;;14.15;;
52025;SDS011;38041;40.058;18.328;2022-08-01T10:38:36;30.80;;;23.33;;
52025;SDS011;38041;40.058;18.328;2022-08-01T10:41:04;15.93;;;11.73;;
52025;SDS011;38041;40.058;18.328;2022-08-01T10:43:32;6.55;;;4.13;;
52025;SDS011;38041;40.058;18.328;2022-08-01T10:46:00;14.63;;;9.35;;
52025;SDS011;38041;40.058;18.328;2022-08-01T10:48:29;9.88;;;7.55;;
52025;SDS011;38041;40.058;18.328;2022-08-01T10:51:00;9.20;;;5.93;;
52025;SDS011;38041;40.058;18.328;2022-08-01T10:53:28;10.18;;;5.53;;
52025;SDS011;38041;40.058;18.328;2022-08-01T10:58:31;15.90;;;14.23;;
52025;SDS011;38041;40.058;18.328;2022-08-01T11:01:15;4.85;;;3.88;;
52025;SDS011;38041;40.058;18.328;2022-08-01T11:03:43;13.93;;;9.18;;
52025;SDS011;38041;40.058;18.328;2022-08-01T11:08:55;13.85;;;8.70;;
52025;SDS011;38041;40.058;18.328;2022-08-01T11:11:24;10.60;;;4.00;;
52025;SDS011;38041;40.058;18.328;2022-08-01T11:16:40;15.95;;;11.57;;
52025;SDS011;38041;40.058;18.328;2022-08-01T11:19:08;17.77;;;14.70;;
52025;SDS011;38041;40.058;18.328;2022-08-01T11:32:54;8.82;;;6.28;;
52025;SDS011;38041;40.058;18.328;2022-08-01T11:35:38;8.27;;;6.70;;
52025;SDS011;38041;40.058;18.328;2022-08-01T11:38:26;7.43;;;4.90;;
52025;SDS011;38041;40.058;18.328;2022-08-01T11:49:26;5.22;;;3.28;;
52025;SDS011;38041;40.058;18.328;2022-08-01T11:52:11;12.90;;;10.80;;
52025;SDS011;38041;40.058;18.328;2022-08-01T11:54:48;22.65;;;14.75;;
52025;SDS011;38041;40.058;18.328;2022-08-01T11:59:54;13.10;;;11.18;;
52025;SDS011;38041;40.058;18.328;2022-08-01T12:02:23;5.25;;;3.45;;
52025;SDS011;38041;40.058;18.328;2022-08-01T12:05:00;5.43;;;2.83;;
52025;SDS011;38041;40.058;18.328;2022-08-01T12:07:29;7.03;;;4.05;;
52025;SDS011;38041;40.058;18.328;2022-08-01T12:09:59;20.95;;;4.28;;
52025;SDS011;38041;40.058;18.328;2022-08-01T12:12:28;7.28;;;5.50;;
52025;SDS011;38041;40.058;18.328;2022-08-01T12:14:57;26.45;;;23.48;;
52025;SDS011;38041;40.058;18.328;2022-08-01T12:20:02;23.38;;;18.77;;
52025;SDS011;38041;40.058;18.328;2022-08-01T12:22:31;26.05;;;14.38;;
52025;SDS011;38041;40.058;18.328;2022-08-01T12:25:08;11.05;;;6.70;;
52025;SDS011;38041;40.058;18.328;2022-08-01T12:27:37;9.45;;;7.90;;
52025;SDS011;38041;40.058;18.328;2022-08-01T12:30:08;12.43;;;10.18;;
52025;SDS011;38041;40.058;18.328;2022-08-01T12:32:37;11.55;;;6.00;;
52025;SDS011;38041;40.058;18.328;2022-08-01T12:37:36;14.50;;;12.60;;
52025;SDS011;38041;40.058;18.328;2022-08-01T12:40:24;13.60;;;11.43;;
52025;SDS011;38041;40.058;18.328;2022-08-01T12:42:53;34.30;;;29.50;;
52025;SDS011;38041;40.058;18.328;2022-08-01T12:45:23;15.77;;;12.32;;
52025;SDS011;38041;40.058;18.328;2022-08-01T12:47:54;17.17;;;15.07;;
52025;SDS011;38041;40.058;18.328;2022-08-01T12:50:25;28.42;;;21.65;;
52025;SDS011;38041;40.058;18.328;2022-08-01T12:52:55;9.05;;;6.18;;
52025;SDS011;38041;40.058;18.328;2022-08-01T12:55:23;8.43;;;6.70;;
52025;SDS011;38041;40.058;18.328;2022-08-01T12:58:05;10.43;;;8.73;;
52025;SDS011;38041;40.058;18.328;2022-08-01T13:00:35;8.25;;;3.38;;
52025;SDS011;38041;40.058;18.328;2022-08-01T13:03:13;13.77;;;12.15;;
52025;SDS011;38041;40.058;18.328;2022-08-01T13:08:10;27.25;;;16.95;;
52025;SDS011;38041;40.058;18.328;2022-08-01T13:10:39;11.13;;;6.18;;
52025;SDS011;38041;40.058;18.328;2022-08-01T13:13:08;3.85;;;2.47;;
52025;SDS011;38041;40.058;18.328;2022-08-01T13:15:37;11.95;;;6.22;;
52025;SDS011;38041;40.058;18.328;2022-08-01T13:18:21;10.38;;;6.75;;
52025;SDS011;38041;40.058;18.328;2022-08-01T13:20:49;7.93;;;7.10;;
52025;SDS011;38041;40.058;18.328;2022-08-01T13:23:18;9.75;;;8.02;;
52025;SDS011;38041;40.058;18.328;2022-08-01T13:25:49;9.35;;;6.97;;
52025;SDS011;38041;40.058;18.328;2022-08-01T13:28:27;7.05;;;4.47;;
52025;SDS011;38041;40.058;18.328;2022-08-01T13:33:23;11.77;;;10.50;;
52025;SDS011;38041;40.058;18.328;2022-08-01T13:35:55;4.95;;;2.10;;
52025;SDS011;38041;40.058;18.328;2022-08-01T13:38:22;5.68;;;3.28;;
52025;SDS011;38041;40.058;18.328;2022-08-01T13:41:10;7.85;;;5.22;;
52025;SDS011;38041;40.058;18.328;2022-08-01T13:43:38;9.77;;;4.07;;
52025;SDS011;38041;40.058;18.328;2022-08-01T13:46:07;12.93;;;9.02;;
52025;SDS011;38041;40.058;18.328;2022-08-01T13:48:35;5.72;;;4.68;;
52025;SDS011;38041;40.058;18.328;2022-08-01T13:51:02;7.97;;;5.40;;
52025;SDS011;38041;40.058;18.328;2022-08-01T13:53:45;4.80;;;2.38;;
52025;SDS011;38041;40.058;18.328;2022-08-01T13:56:13;10.23;;;6.65;;
52025;SDS011;38041;40.058;18.328;2022-08-01T13:58:43;4.25;;;3.65;;
52025;SDS011;38041;40.058;18.328;2022-08-01T14:01:10;12.27;;;2.25;;
52025;SDS011;38041;40.058;18.328;2022-08-01T14:03:38;7.55;;;3.67;;
52025;SDS011;38041;40.058;18.328;2022-08-01T14:06:07;5.80;;;2.00;;
52025;SDS011;38041;40.058;18.328;2022-08-01T14:08:35;32.10;;;24.75;;
52025;SDS011;38041;40.058;18.328;2022-08-01T14:11:02;6.45;;;4.10;;
52025;SDS011;38041;40.058;18.328;2022-08-01T14:13:30;13.73;;;3.72;;
52025;SDS011;38041;40.058;18.328;2022-08-01T14:15:59;15.27;;;10.18;;
52025;SDS011;38041;40.058;18.328;2022-08-01T14:18:27;11.38;;;8.40;;
52025;SDS011;38041;40.058;18.328;2022-08-01T14:20:55;5.38;;;3.13;;
52025;SDS011;38041;40.058;18.328;2022-08-01T14:23:23;11.10;;;7.10;;
52025;SDS011;38041;40.058;18.328;2022-08-01T14:25:52;9.35;;;7.75;;
52025;SDS011;38041;40.058;18.328;2022-08-01T14:28:20;8.95;;;5.47;;
52025;SDS011;38041;40.058;18.328;2022-08-01T14:30:48;9.30;;;4.93;;
52025;SDS011;38041;40.058;18.328;2022-08-01T14:33:15;5.88;;;2.78;;
52025;SDS011;38041;40.058;18.328;2022-08-01T14:35:43;4.50;;;3.17;;
52025;SDS011;38041;40.058;18.328;2022-08-01T14:38:11;8.68;;;1.17;;
52025;SDS011;38041;40.058;18.328;2022-08-01T14:40:39;5.47;;;4.82;;
52025;SDS011;38041;40.058;18.328;2022-08-01T14:43:09;8.98;;;2.38;;
52025;SDS011;38041;40.058;18.328;2022-08-01T14:45:37;4.43;;;2.05;;
52025;SDS011;38041;40.058;18.328;2022-08-01T14:48:05;4.43;;;1.17;;
52025;SDS011;38041;40.058;18.328;2022-08-01T14:50:33;6.97;;;2.97;;
52025;SDS011;38041;40.058;18.328;2022-08-01T14:53:00;5.20;;;1.67;;
52025;SDS011;38041;40.058;18.328;2022-08-01T14:55:28;1.85;;;1.45;;
52025;SDS011;38041;40.058;18.328;2022-08-01T14:57:56;3.30;;;0.60;;
52025;SDS011;38041;40.058;18.328;2022-08-01T15:00:23;2.05;;;0.57;;
52025;SDS011;38041;40.058;18.328;2022-08-01T15:02:54;3.53;;;0.40;;
52025;SDS011;38041;40.058;18.328;2022-08-01T15:05:22;1.98;;;1.27;;
52025;SDS011;38041;40.058;18.328;2022-08-01T15:07:50;1.08;;;0.32;;
52025;SDS011;38041;40.058;18.328;2022-08-01T15:10:17;2.08;;;0.98;;
52025;SDS011;38041;40.058;18.328;2022-08-01T15:12:45;3.33;;;0.60;;
52025;SDS011;38041;40.058;18.328;2022-08-01T15:15:15;3.65;;;0.60;;
52025;SDS011;38041;40.058;18.328;2022-08-01T15:17:43;1.88;;;0.65;;
52025;SDS011;38041;40.058;18.328;2022-08-01T15:20:11;5.07;;;0.30;;
52025;SDS011;38041;40.058;18.328;2022-08-01T15:22:39;1.05;;;0.30;;
52025;SDS011;38041;40.058;18.328;2022-08-01T15:25:07;1.35;;;0.40;;
52025;SDS011;38041;40.058;18.328;2022-08-01T15:27:34;3.53;;;0.75;;
52025;SDS011;38041;40.058;18.328;2022-08-01T15:30:02;1.35;;;0.20;;
52025;SDS011;38041;40.058;18.328;2022-08-01T15:32:30;11.98;;;0.50;;
52025;SDS011;38041;40.058;18.328;2022-08-01T15:34:58;2.17;;;0.20;;
52025;SDS011;38041;40.058;18.328;2022-08-01T15:37:26;2.00;;;0.98;;
52025;SDS011;38041;40.058;18.328;2022-08-01T15:39:54;3.28;;;0.88;;
52025;SDS011;38041;40.058;18.328;2022-08-01T15:42:22;9.43;;;2.83;;
52025;SDS011;38041;40.058;18.328;2022-08-01T15:44:50;3.63;;;2.55;;
52025;SDS011;38041;40.058;18.328;2022-08-01T15:47:18;4.78;;;1.15;;
52025;SDS011;38041;40.058;18.328;2022-08-01T15:49:45;3.10;;;2.10;;
52025;SDS011;38041;40.058;18.328;2022-08-01T15:52:13;4.75;;;0.93;;